Time;durP1;ratioP1;P1;durP2;ratioP2;P2;SDS_P1;SDS_P2;PMS_P1;PMS_P2;Temp;Humidity;BMP_temperature;BMP_pressure;BME280_temperature;BME280_humidity;BME280_pressure;Samples;Min_cycle;Max_cycle;Signal;HPM_P1;HPM_P2
2022/08/02 00:03:37;;;;;;;1.73;1.00;;;;;;;;;;10440894;28;20689;-83
2022/08/02 00:08:40;;;;;;;1.77;1.10;;;;;;;;;;10433181;28;20128;-83
2022/08/02 00:13:45;;;;;;;0.28;0.25;;;;;;;;;;10423408;28;20041;-82
2022/08/02 00:18:49;;;;;;;1.63;0.90;;;;;;;;;;10433674;28;20037;-83
2022/08/02 00:23:52;;;;;;;1.00;0.80;;;;;;;;;;10431484;28;20304;-83
2022/08/02 00:29:15;;;;;;;0.47;0.47;;;;;;;;;;10430421;28;20060;-82
2022/08/02 00:34:20;;;;;;;2.60;0.73;;;;;;;;;;10430650;28;20147;-82
2022/08/02 00:39:33;;;;;;;1.05;0.88;;;;;;;;;;10433510;28;20030;-82
2022/08/02 00:44:37;;;;;;;1.08;0.68;;;;;;;;;;10433196;28;20091;-82
2022/08/02 00:49:41;;;;;;;1.67;0.90;;;;;;;;;;10433926;28;20060;-82
2022/08/02 00:54:44;;;;;;;0.82;0.75;;;;;;;;;;10432368;28;20029;-82
2022/08/02 00:59:47;;;;;;;1.95;0.77;;;;;;;;;;10432663;28;20045;-82
2022/08/02 01:04:52;;;;;;;2.47;1.25;;;;;;;;;;10431634;28;20037;-81
2022/08/02 01:09:55;;;;;;;2.63;1.30;;;;;;;;;;10432445;28;20194;-82
2022/08/02 01:15:01;;;;;;;1.35;0.75;;;;;;;;;;10431269;28;20041;-82
2022/08/02 01:20:12;;;;;;;1.65;1.05;;;;;;;;;;10434488;28;20041;-81
2022/08/02 01:25:22;;;;;;;2.13;1.15;;;;;;;;;;10442683;28;20041;-81
2022/08/02 01:30:32;;;;;;;1.75;1.27;;;;;;;;;;10437260;28;20079;-82
2022/08/02 01:35:41;;;;;;;2.58;1.30;;;;;;;;;;10443095;28;20164;-83
2022/08/02 01:40:58;;;;;;;1.50;1.15;;;;;;;;;;10439116;28;20041;-82
2022/08/02 01:46:04;;;;;;;2.22;1.23;;;;;;;;;;10441131;28;20057;-82
2022/08/02 01:51:12;;;;;;;1.83;1.20;;;;;;;;;;10442447;28;20494;-82
2022/08/02 01:56:16;;;;;;;2.05;1.10;;;;;;;;;;10442802;28;20044;-82
2022/08/02 02:01:21;;;;;;;1.75;1.15;;;;;;;;;;10443623;28;20509;-82
2022/08/02 02:06:24;;;;;;;1.48;1.02;;;;;;;;;;10441485;28;20394;-82
2022/08/02 02:11:27;;;;;;;1.67;1.10;;;;;;;;;;10437799;28;20037;-83
2022/08/02 02:16:53;;;;;;;1.75;0.98;;;;;;;;;;10439614;28;20037;-82
2022/08/02 02:21:58;;;;;;;2.10;1.52;;;;;;;;;;10435375;28;20040;-82
2022/08/02 02:27:04;;;;;;;1.42;0.85;;;;;;;;;;10445239;28;20034;-81
2022/08/02 02:32:10;;;;;;;0.88;0.82;;;;;;;;;;10445550;28;20126;-82
2022/08/02 02:37:17;;;;;;;1.60;1.30;;;;;;;;;;10444844;28;20060;-82
2022/08/02 02:42:23;;;;;;;2.78;1.30;;;;;;;;;;10446594;28;20068;-82
2022/08/02 02:47:30;;;;;;;2.83;1.60;;;;;;;;;;10448892;28;20060;-83
2022/08/02 02:52:44;;;;;;;3.40;1.60;;;;;;;;;;10445815;28;20129;-83
2022/08/02 02:57:48;;;;;;;2.38;1.40;;;;;;;;;;10448263;28;20056;-83
2022/08/02 03:02:53;;;;;;;3.28;1.50;;;;;;;;;;10438717;28;20525;-83
2022/08/02 03:07:57;;;;;;;2.50;1.50;;;;;;;;;;10443138;28;20043;-83
2022/08/02 03:13:01;;;;;;;2.67;1.52;;;;;;;;;;10441780;28;20128;-83
2022/08/02 03:18:06;;;;;;;;;;;;;;;;;;10448460;28;20029;-83
2022/08/02 03:23:11;;;;;;;4.15;1.98;;;;;;;;;;10439474;28;19924;-83
2022/08/02 03:28:14;;;;;;;4.65;1.90;;;;;;;;;;10449063;28;20041;-82
2022/08/02 03:33:18;;;;;;;3.20;1.60;;;;;;;;;;10444914;28;20090;-83
2022/08/02 03:38:25;;;;;;;3.33;1.55;;;;;;;;;;10446275;28;20041;-82
2022/08/02 03:43:31;;;;;;;2.55;1.77;;;;;;;;;;10437769;28;20147;-83
2022/08/02 03:48:36;;;;;;;2.08;1.55;;;;;;;;;;10445681;28;20116;-82
2022/08/02 03:53:42;;;;;;;3.30;1.83;;;;;;;;;;10438597;28;20127;-83
2022/08/02 03:58:44;;;;;;;4.05;1.77;;;;;;;;;;10444686;28;20037;-82
2022/08/02 04:03:51;;;;;;;4.15;1.98;;;;;;;;;;10440799;28;20044;-83
2022/08/02 04:08:54;;;;;;;;;;;;;;;;;;10436481;28;20124;-83
2022/08/02 04:13:59;;;;;;;5.25;1.83;;;;;;;;;;10440839;28;19924;-84
2022/08/02 04:19:03;;;;;;;3.67;1.73;;;;;;;;;;10440738;28;20486;-84
2022/08/02 04:24:08;;;;;;;4.78;1.80;;;;;;;;;;10443623;28;20386;-82
2022/08/02 04:29:14;;;;;;;3.38;1.73;;;;;;;;;;10436727;28;20126;-83
2022/08/02 04:34:17;;;;;;;2.58;1.95;;;;;;;;;;10437665;28;20033;-82
2022/08/02 04:39:20;;;;;;;2.90;1.55;;;;;;;;;;10434787;28;21102;-83
2022/08/02 04:44:24;;;;;;;6.23;2.00;;;;;;;;;;10441094;28;20037;-82
2022/08/02 04:49:27;;;;;;;2.92;1.73;;;;;;;;;;10440371;28;20292;-82
2022/08/02 04:54:30;;;;;;;2.97;1.70;;;;;;;;;;10445863;28;20069;-83
2022/08/02 04:59:34;;;;;;;4.82;1.92;;;;;;;;;;10447743;28;20306;-83
2022/08/02 05:04:37;;;;;;;2.75;1.80;;;;;;;;;;10444603;28;20048;-84
2022/08/02 05:09:40;;;;;;;3.25;1.85;;;;;;;;;;10438295;28;20044;-84
2022/08/02 05:14:44;;;;;;;5.85;1.42;;;;;;;;;;10449838;28;20032;-84
2022/08/02 05:19:48;;;;;;;3.25;1.50;;;;;;;;;;10444270;28;20045;-84
2022/08/02 05:24:51;;;;;;;2.90;1.80;;;;;;;;;;10446671;28;20060;-84
2022/08/02 05:29:57;;;;;;;4.88;1.95;;;;;;;;;;10446218;28;20033;-83
2022/08/02 05:35:00;;;;;;;4.07;1.50;;;;;;;;;;10448234;28;20055;-83
2022/08/02 05:40:04;;;;;;;3.88;1.70;;;;;;;;;;10438706;28;20044;-84
2022/08/02 05:45:16;;;;;;;2.30;1.38;;;;;;;;;;10448141;28;20052;-83
2022/08/02 05:50:20;;;;;;;2.90;1.60;;;;;;;;;;10476966;28;20029;-84
2022/08/02 05:55:26;;;;;;;5.28;1.90;;;;;;;;;;10439389;28;20040;-84
2022/08/02 06:00:29;;;;;;;;;;;;;;;;;;10448438;28;20122;-83
2022/08/02 06:05:35;;;;;;;2.15;1.25;;;;;;;;;;10443180;28;20340;-82
2022/08/02 06:10:40;;;;;;;2.13;1.50;;;;;;;;;;10439581;28;20048;-84
2022/08/02 06:15:43;;;;;;;2.22;1.42;;;;;;;;;;10445367;28;20319;-83
2022/08/02 06:20:58;;;;;;;4.15;1.60;;;;;;;;;;10443538;28;20405;-83
2022/08/02 06:26:22;;;;;;;3.53;1.40;;;;;;;;;;10444844;28;20375;-83
2022/08/02 06:31:25;;;;;;;1.75;1.30;;;;;;;;;;10439289;28;20037;-83
2022/08/02 06:36:33;;;;;;;3.90;1.40;;;;;;;;;;10438560;28;20029;-83
2022/08/02 06:41:38;;;;;;;3.05;1.33;;;;;;;;;;10442098;28;20305;-84
2022/08/02 06:46:42;;;;;;;4.45;1.60;;;;;;;;;;10449060;28;20036;-83
2022/08/02 06:52:07;;;;;;;4.97;1.55;;;;;;;;;;10443978;28;20107;-84
2022/08/02 06:57:11;;;;;;;1.58;1.42;;;;;;;;;;10440965;28;20218;-84
2022/08/02 07:02:14;;;;;;;4.95;1.65;;;;;;;;;;10440189;28;20037;-84
2022/08/02 07:07:19;;;;;;;2.72;1.50;;;;;;;;;;10458993;28;20041;-84
2022/08/02 07:12:22;;;;;;;4.43;1.60;;;;;;;;;;10442094;28;20040;-83
2022/08/02 07:17:25;;;;;;;4.00;1.92;;;;;;;;;;10441806;28;20036;-83
2022/08/02 07:22:29;;;;;;;2.40;1.40;;;;;;;;;;10443590;28;20033;-83
2022/08/02 07:27:32;;;;;;;3.20;1.40;;;;;;;;;;10442248;28;20041;-82
2022/08/02 07:32:35;;;;;;;;;;;;;;;;;;10441840;28;20041;-83
2022/08/02 07:37:41;;;;;;;2.22;1.50;;;;;;;;;;10444593;28;19927;-84
2022/08/02 07:43:00;;;;;;;2.80;1.70;;;;;;;;;;10442311;28;20496;-85
2022/08/02 07:48:07;;;;;;;4.60;1.58;;;;;;;;;;10436894;28;20650;-82
2022/08/02 07:53:11;;;;;;;3.65;1.95;;;;;;;;;;10437164;28;20128;-85
2022/08/02 07:58:15;;;;;;;1.48;1.38;;;;;;;;;;10437476;28;20041;-84
2022/08/02 08:03:18;;;;;;;2.50;2.03;;;;;;;;;;10438140;28;20346;-84
2022/08/02 08:08:22;;;;;;;2.67;1.63;;;;;;;;;;10441852;28;20034;-85
2022/08/02 08:13:26;;;;;;;1.75;1.60;;;;;;;;;;10437822;28;20045;-84
2022/08/02 08:18:29;;;;;;;1.90;1.70;;;;;;;;;;10444170;28;20461;-86
2022/08/02 08:23:34;;;;;;;3.47;1.60;;;;;;;;;;10444862;28;20036;-86
2022/08/02 08:28:36;;;;;;;6.85;3.90;;;;;;;;;;10442941;28;20144;-86
2022/08/02 08:33:40;;;;;;;1.73;1.50;;;;;;;;;;10445716;28;20132;-86
2022/08/02 08:38:44;;;;;;;4.13;1.60;;;;;;;;;;10454714;28;20048;-85
2022/08/02 08:43:47;;;;;;;3.40;1.70;;;;;;;;;;10446509;28;20037;-86
2022/08/02 08:48:59;;;;;;;3.67;2.45;;;;;;;;;;10447177;28;20056;-86
2022/08/02 08:54:04;;;;;;;2.15;1.80;;;;;;;;;;10446437;28;20048;-87
2022/08/02 08:59:07;;;;;;;3.85;1.85;;;;;;;;;;10446346;28;20124;-86
2022/08/02 09:04:10;;;;;;;1.80;1.70;;;;;;;;;;10445216;28;20045;-86
2022/08/02 09:09:15;;;;;;;2.00;1.90;;;;;;;;;;10445084;28;20025;-86
2022/08/02 09:14:26;;;;;;;4.35;2.17;;;;;;;;;;10447281;28;20419;-86
2022/08/02 09:19:28;;;;;;;2.28;2.08;;;;;;;;;;10441123;28;20124;-86
2022/08/02 09:24:42;;;;;;;2.10;1.98;;;;;;;;;;10446943;28;20387;-86
2022/08/02 09:29:46;;;;;;;2.22;2.00;;;;;;;;;;10446067;28;20036;-87
2022/08/02 09:35:09;;;;;;;3.47;2.15;;;;;;;;;;10449160;28;20037;-86
2022/08/02 09:40:14;;;;;;;4.30;2.10;;;;;;;;;;10443077;28;20522;-86
2022/08/02 09:45:17;;;;;;;3.50;1.52;;;;;;;;;;10445026;28;20521;-86
2022/08/02 09:50:20;;;;;;;2.22;1.92;;;;;;;;;;10447111;28;20044;-86
2022/08/02 09:55:26;;;;;;;4.15;2.20;;;;;;;;;;10448924;28;20033;-87
2022/08/02 10:00:30;;;;;;;2.05;1.95;;;;;;;;;;10448942;28;20033;-87
2022/08/02 10:05:53;;;;;;;2.60;2.40;;;;;;;;;;10444511;28;20078;-87
2022/08/02 10:11:05;;;;;;;2.63;2.42;;;;;;;;;;10442754;28;20623;-88
2022/08/02 10:16:08;;;;;;;2.90;2.47;;;;;;;;;;10441914;28;20037;-87
2022/08/02 10:21:12;;;;;;;2.80;2.42;;;;;;;;;;10441257;28;20159;-87
2022/08/02 10:26:18;;;;;;;2.58;2.38;;;;;;;;;;10444533;28;20043;-87
2022/08/02 10:31:24;;;;;;;3.22;2.97;;;;;;;;;;10441170;28;20512;-86
2022/08/02 10:36:27;;;;;;;2.47;2.28;;;;;;;;;;10442196;28;20037;-87
2022/08/02 10:41:45;;;;;;;2.70;2.40;;;;;;;;;;10438199;28;20040;-87
2022/08/02 10:46:48;;;;;;;2.53;2.20;;;;;;;;;;10445828;28;20132;-87
2022/08/02 10:51:58;;;;;;;1.67;1.58;;;;;;;;;;10442741;28;20352;-86
2022/08/02 10:57:02;;;;;;;4.13;2.38;;;;;;;;;;10439842;28;20037;-88
2022/08/02 11:02:06;;;;;;;2.80;2.10;;;;;;;;;;10441975;28;20040;-87
2022/08/02 11:07:10;;;;;;;3.78;2.97;;;;;;;;;;10449015;28;20043;-88
2022/08/02 11:12:16;;;;;;;2.15;2.05;;;;;;;;;;10474755;28;20037;-88
2022/08/02 11:17:19;;;;;;;1.77;1.40;;;;;;;;;;10440234;28;20102;-88
2022/08/02 11:22:22;;;;;;;3.08;2.20;;;;;;;;;;10444040;28;20044;-88
2022/08/02 11:27:30;;;;;;;3.05;2.10;;;;;;;;;;10439623;28;20509;-87
2022/08/02 11:32:34;;;;;;;3.53;2.13;;;;;;;;;;10444646;28;20040;-88
2022/08/02 11:37:39;;;;;;;3.08;2.20;;;;;;;;;;10442516;28;20041;-87
2022/08/02 11:42:44;;;;;;;2.33;2.15;;;;;;;;;;10447715;28;20584;-88
2022/08/02 11:47:47;;;;;;;1.90;1.80;;;;;;;;;;10444133;28;20044;-87
2022/08/02 11:52:52;;;;;;;2.60;1.80;;;;;;;;;;10441264;28;20041;-88
2022/08/02 11:57:59;;;;;;;3.28;1.90;;;;;;;;;;10444963;28;20045;-88
2022/08/02 12:03:06;;;;;;;1.60;1.50;;;;;;;;;;10440967;28;20044;-88
2022/08/02 12:08:09;;;;;;;1.92;1.70;;;;;;;;;;10433626;28;20091;-88
2022/08/02 12:13:14;;;;;;;2.38;1.20;;;;;;;;;;10438651;28;20063;-88
2022/08/02 12:23:43;;;;;;;1.38;1.10;;;;;;;;;;10444956;28;20481;-87
2022/08/02 12:29:04;;;;;;;2.22;1.80;;;;;;;;;;10438194;28;20140;-88
2022/08/02 12:34:16;;;;;;;4.15;2.72;;;;;;;;;;10442793;28;20033;-87
2022/08/02 12:39:18;;;;;;;2.47;1.70;;;;;;;;;;10442020;28;20045;-88
2022/08/02 12:44:23;;;;;;;1.58;1.30;;;;;;;;;;10442429;28;20106;-88
2022/08/02 12:49:26;;;;;;;1.98;1.50;;;;;;;;;;10448469;28;20068;-88
2022/08/02 12:54:39;;;;;;;3.15;1.42;;;;;;;;;;10456931;28;20132;-88
2022/08/02 12:59:48;;;;;;;1.40;1.30;;;;;;;;;;10442838;28;20406;-87
2022/08/02 13:04:51;;;;;;;1.63;1.50;;;;;;;;;;10465736;28;21133;-87
2022/08/02 13:09:54;;;;;;;1.38;1.30;;;;;;;;;;10492614;28;20054;-87
2022/08/02 13:15:06;;;;;;;1.20;1.20;;;;;;;;;;10462534;28;20041;-87
2022/08/02 13:20:30;;;;;;;2.15;1.55;;;;;;;;;;10479605;28;20041;-88
2022/08/02 13:25:33;;;;;;;1.95;1.70;;;;;;;;;;10453319;28;20060;-86
2022/08/02 13:30:37;;;;;;;1.27;1.00;;;;;;;;;;10445535;28;20083;-87
2022/08/02 13:35:41;;;;;;;1.00;1.00;;;;;;;;;;10440754;28;20482;-87
2022/08/02 13:46:08;;;;;;;0.82;0.82;;;;;;;;;;10448901;28;20106;-88
2022/08/02 13:51:12;;;;;;;1.80;0.98;;;;;;;;;;10448996;28;20461;-87
2022/08/02 13:56:16;;;;;;;2.17;0.95;;;;;;;;;;10450301;28;20029;-87
2022/08/02 14:01:21;;;;;;;2.55;1.30;;;;;;;;;;10439895;28;20470;-87
2022/08/02 14:06:24;;;;;;;1.00;1.00;;;;;;;;;;10448932;28;20237;-85
2022/08/02 14:11:27;;;;;;;2.50;1.10;;;;;;;;;;10445646;28;20033;-86
2022/08/02 14:16:31;;;;;;;0.95;0.82;;;;;;;;;;10471557;28;20490;-87
2022/08/02 14:21:34;;;;;;;1.85;1.25;;;;;;;;;;10445872;28;20087;-87
2022/08/02 14:26:49;;;;;;;2.38;0.90;;;;;;;;;;10450014;28;20091;-87
2022/08/02 14:31:54;;;;;;;1.15;1.05;;;;;;;;;;10447022;28;20449;-86
2022/08/02 14:36:57;;;;;;;3.38;2.35;;;;;;;;;;10447077;28;20604;-87
2022/08/02 14:42:00;;;;;;;1.23;0.93;;;;;;;;;;10445686;28;20082;-87
2022/08/02 14:47:05;;;;;;;1.40;1.00;;;;;;;;;;10446170;28;20106;-86
2022/08/02 14:52:09;;;;;;;1.05;0.95;;;;;;;;;;10441514;28;20029;-87
2022/08/02 14:57:13;;;;;;;1.10;0.93;;;;;;;;;;10444163;28;20033;-86
2022/08/02 15:02:18;;;;;;;1.40;0.90;;;;;;;;;;10458423;28;20033;-86
2022/08/02 15:07:21;;;;;;;1.30;0.80;;;;;;;;;;10439528;28;20275;-87
2022/08/02 15:12:24;;;;;;;2.63;1.00;;;;;;;;;;10441132;28;20029;-85
2022/08/02 15:17:28;;;;;;;1.08;0.80;;;;;;;;;;10444255;28;20359;-87
2022/08/02 15:22:32;;;;;;;2.78;1.20;;;;;;;;;;10440143;28;20039;-86
2022/08/02 15:27:35;;;;;;;1.38;1.00;;;;;;;;;;10440436;28;20053;-86
2022/08/02 15:32:42;;;;;;;2.42;1.00;;;;;;;;;;10438924;28;20466;-86
2022/08/02 15:37:55;;;;;;;0.95;0.90;;;;;;;;;;10437929;28;20041;-86
2022/08/02 15:42:58;;;;;;;1.00;0.90;;;;;;;;;;10444054;28;20033;-87
2022/08/02 15:48:03;;;;;;;1.52;1.38;;;;;;;;;;10441353;28;20267;-86
2022/08/02 15:53:06;;;;;;;0.98;0.98;;;;;;;;;;10448899;28;20029;-87
2022/08/02 15:58:10;;;;;;;1.70;1.25;;;;;;;;;;10458464;28;20144;-86
2022/08/02 16:03:21;;;;;;;1.75;0.80;;;;;;;;;;10448682;28;20398;-86
2022/08/02 16:08:24;;;;;;;1.73;1.20;;;;;;;;;;10440831;28;20056;-86
2022/08/02 16:18:58;;;;;;;1.50;0.80;;;;;;;;;;10451219;28;20060;-85
2022/08/02 16:24:34;;;;;;;1.00;0.90;;;;;;;;;;10444778;28;20556;-85
2022/08/02 16:29:43;;;;;;;0.70;0.70;;;;;;;;;;10444646;28;20053;-84
2022/08/02 16:40:26;;;;;;;0.98;0.77;;;;;;;;;;10468702;28;20052;-86
2022/08/02 16:45:42;;;;;;;0.93;0.90;;;;;;;;;;10452742;28;20063;-86
2022/08/02 16:50:53;;;;;;;1.55;1.35;;;;;;;;;;10431043;28;20029;-85
2022/08/02 16:55:58;;;;;;;0.40;0.40;;;;;;;;;;10448076;28;20055;-85
2022/08/02 17:06:56;;;;;;;5.15;2.75;;;;;;;;;;10455632;28;20122;-85
2022/08/02 17:12:04;;;;;;;1.27;1.10;;;;;;;;;;10461129;28;20064;-83
2022/08/02 17:17:24;;;;;;;1.05;0.90;;;;;;;;;;10439297;28;20041;-86
2022/08/02 17:22:43;;;;;;;3.83;0.98;;;;;;;;;;10447865;28;20091;-85
2022/08/02 17:28:03;;;;;;;1.45;1.10;;;;;;;;;;10437399;28;20170;-84
2022/08/02 17:33:19;;;;;;;4.25;2.58;;;;;;;;;;10448038;28;20041;-86
2022/08/02 17:38:28;;;;;;;2.65;1.65;;;;;;;;;;10443482;28;20440;-84
2022/08/02 17:43:34;;;;;;;4.28;1.60;;;;;;;;;;10430083;28;20036;-85
2022/08/02 17:54:11;;;;;;;4.60;1.90;;;;;;;;;;10448055;28;20530;-84
2022/08/02 17:59:21;;;;;;;4.30;2.78;;;;;;;;;;10442141;28;20509;-84
2022/08/02 18:04:48;;;;;;;2.83;1.60;;;;;;;;;;10441305;28;20040;-84
2022/08/02 18:10:31;;;;;;;6.38;2.85;;;;;;;;;;10446726;28;20041;-84
2022/08/02 18:16:04;;;;;;;6.22;2.83;;;;;;;;;;10439433;28;20271;-86
2022/08/02 18:22:25;;;;;;;5.45;2.05;;;;;;;;;;10449982;28;20052;-84
2022/08/02 18:27:42;;;;;;;6.15;2.55;;;;;;;;;;10445274;28;20456;-85
2022/08/02 18:33:15;;;;;;;12.63;6.43;;;;;;;;;;10453751;28;20045;-85
2022/08/02 18:39:05;;;;;;;5.22;2.35;;;;;;;;;;10449827;28;20037;-85
2022/08/02 18:51:01;;;;;;;2.55;1.60;;;;;;;;;;10411276;28;20142;-84
2022/08/02 18:56:16;;;;;;;5.88;2.55;;;;;;;;;;10439454;28;20134;-84
2022/08/02 19:01:30;;;;;;;9.88;4.03;;;;;;;;;;10442750;28;20065;-84
2022/08/02 19:06:42;;;;;;;3.53;2.17;;;;;;;;;;10440993;28;20053;-84
2022/08/02 19:11:55;;;;;;;4.80;2.15;;;;;;;;;;10446371;28;20037;-85
2022/08/02 19:17:14;;;;;;;6.32;2.47;;;;;;;;;;10446545;28;20037;-84
2022/08/02 19:22:45;;;;;;;9.98;4.65;;;;;;;;;;10442492;28;20029;-83
2022/08/02 19:27:57;;;;;;;7.45;3.70;;;;;;;;;;10443059;28;20072;-83
2022/08/02 19:33:03;;;;;;;5.40;2.15;;;;;;;;;;10443217;28;20139;-83
2022/08/02 19:38:38;;;;;;;7.18;3.28;;;;;;;;;;10440414;28;20478;-83
2022/08/02 19:43:51;;;;;;;5.78;2.40;;;;;;;;;;10444629;28;20041;-84
2022/08/02 19:49:18;;;;;;;7.25;3.40;;;;;;;;;;10448890;28;20139;-84
2022/08/02 19:54:50;;;;;;;5.72;2.92;;;;;;;;;;10447312;28;20033;-83
2022/08/02 20:00:01;;;;;;;8.00;2.70;;;;;;;;;;10438490;28;20048;-83
2022/08/02 20:05:09;;;;;;;8.85;3.80;;;;;;;;;;10441893;28;20348;-83
2022/08/02 20:10:28;;;;;;;6.97;3.50;;;;;;;;;;10431518;28;20252;-83
2022/08/02 20:15:37;;;;;;;8.77;4.00;;;;;;;;;;10453472;28;20045;-84
2022/08/02 20:21:03;;;;;;;8.80;4.18;;;;;;;;;;10471235;28;20040;-82
2022/08/02 20:26:36;;;;;;;11.13;5.13;;;;;;;;;;10492617;28;20029;-83
2022/08/02 20:31:41;;;;;;;10.57;5.20;;;;;;;;;;10472493;28;20040;-83
2022/08/02 20:36:48;;;;;;;6.20;3.25;;;;;;;;;;10482463;28;20053;-83
2022/08/02 20:41:59;;;;;;;10.70;4.82;;;;;;;;;;10452762;28;20224;-83
2022/08/02 20:47:28;;;;;;;6.90;3.65;;;;;;;;;;10445367;28;20378;-83
2022/08/02 20:52:46;;;;;;;10.48;3.60;;;;;;;;;;10426232;28;20166;-83
2022/08/02 20:58:07;;;;;;;8.13;3.90;;;;;;;;;;10444647;28;20033;-83
2022/08/02 21:03:19;;;;;;;10.15;4.35;;;;;;;;;;10441451;28;20033;-84
2022/08/02 21:08:46;;;;;;;11.25;4.25;;;;;;;;;;10436908;28;20143;-83
2022/08/02 21:14:03;;;;;;;9.88;4.22;;;;;;;;;;10433617;28;20147;-82
2022/08/02 21:19:11;;;;;;;10.50;4.30;;;;;;;;;;10420996;28;20048;-83
2022/08/02 21:24:20;;;;;;;12.27;3.85;;;;;;;;;;10470600;28;20153;-83
2022/08/02 21:34:52;;;;;;;11.60;5.60;;;;;;;;;;10475260;28;20029;-83
2022/08/02 21:39:59;;;;;;;8.82;3.38;;;;;;;;;;10494665;28;20102;-83
2022/08/02 21:45:08;;;;;;;8.98;4.28;;;;;;;;;;10503725;28;20051;-82
2022/08/02 21:50:36;;;;;;;8.07;4.15;;;;;;;;;;10452196;28;20090;-83
2022/08/02 21:55:45;;;;;;;8.05;3.72;;;;;;;;;;10451676;28;20068;-83
2022/08/02 22:01:09;;;;;;;8.07;3.92;;;;;;;;;;10449566;28;20403;-83
2022/08/02 22:11:41;;;;;;;10.50;4.18;;;;;;;;;;10446475;28;20048;-83
2022/08/02 22:17:04;;;;;;;13.00;5.45;;;;;;;;;;10442438;28;20052;-82
2022/08/02 22:22:20;;;;;;;8.35;4.22;;;;;;;;;;10443508;28;20038;-82
2022/08/02 22:27:35;;;;;;;9.38;4.07;;;;;;;;;;10443786;28;20163;-82
2022/08/02 22:38:45;;;;;;;8.90;4.65;;;;;;;;;;10461753;28;20493;-83
2022/08/02 22:43:52;;;;;;;9.50;4.10;;;;;;;;;;10469489;28;20053;-83
2022/08/02 22:49:00;;;;;;;9.85;4.32;;;;;;;;;;10472142;28;20424;-83
2022/08/02 22:54:19;;;;;;;6.95;3.63;;;;;;;;;;10469101;28;20040;-82
2022/08/02 22:59:35;;;;;;;10.05;4.38;;;;;;;;;;10470250;28;20037;-82
2022/08/02 23:04:43;;;;;;;9.73;4.38;;;;;;;;;;10465361;28;20055;-82
2022/08/02 23:09:52;;;;;;;9.40;3.88;;;;;;;;;;10465712;28;20055;-81
2022/08/02 23:14:59;;;;;;;9.55;4.32;;;;;;;;;;10443441;28;20036;-82
2022/08/02 23:20:08;;;;;;;9.18;4.28;;;;;;;;;;10468258;28;20047;-83
2022/08/02 23:25:13;;;;;;;8.50;4.00;;;;;;;;;;10466584;28;20477;-83
2022/08/02 23:30:20;;;;;;;8.50;4.00;;;;;;;;;;10464653;28;20040;-82
2022/08/02 23:35:32;;;;;;;6.30;3.35;;;;;;;;;;10468046;28;20033;-82
2022/08/02 23:40:43;;;;;;;7.53;3.63;;;;;;;;;;10455215;28;20389;-82
2022/08/02 23:45:50;;;;;;;6.57;3.20;;;;;;;;;;10449618;28;20041;-82
2022/08/02 23:51:00;;;;;;;5.50;2.78;;;;;;;;;;10482505;28;20327;-82
2022/08/02 23:56:09;;;;;;;8.38;3.75;;;;;;;;;;10467467;28;20072;-82
